FranceFixed distance
La Grande Course des Templiers
31 Oct1999
Distance
65km
Finishers
979906 men73 women
Winning time
5:55:25h
Median pace
6.69km/h
Pace distribution
979 finishers · 5.32–10.97 km/h · mean 6.87
Every finisher ran the same 65 km course, so these paces are directly comparable.
Histogram of finisher pace. 979 finishers ranged from 5.32 to 10.97 kilometres per hour, with a mean of 6.87 and a median of 6.69. The busiest band is 6.5 to 7.0 kilometres per hour, with 204 finishers.
Results
Ranks 901–950 of 979
| Rank | Runner | Time | Pace | Cat. | Placing |
|---|---|---|---|---|---|
| 901 | Riccardi, SergeFranceMan | 11:26:50h | 5.68 | M35 | 840th M · 130th M35 |
| 902 | Dutreuilh, PatriceFranceMan | 11:27:06h | 5.68 | M40 | 841st M · 137th M40 |
| 903 | Le Miere, AugustinFranceMan | 11:27:36h | 5.67 | M50 | 842nd M · 40th M50 |
| 904 | Vendewoorre, AlainFranceMan | 11:28:19h | 5.67 | M35 | 843rd M · 131st M35 |
| 905 | Becquart, ChristopheFranceMan | 11:28:26h | 5.67 | — | 844th M |
| 906 | Mary, Jean-LucFranceMan | 11:28:35h | 5.66 | — | 845th M |
| 907 | Amiel, Jean-PaulFranceMan | 11:29:17h | 5.66 | M50 | 846th M · 41st M50 |
| 908 | Bec, ChristineFranceWoman | 11:29:29h | 5.66 | — | 62nd F |
| 909 | Bec, Jean-LouisFranceMan | 11:31:00h | 5.64 | — | 847th M |
| 910 | Loubes, Jean-MarieFranceMan | 11:31:01h | 5.64 | M45 | 848th M · 92nd M45 |
| 911 | Tetu, GuyFranceMan | 11:31:47h | 5.64 | — | 849th M |
| 912 | Deilhou, PhilippeFranceMan | 11:32:17h | 5.63 | — | 850th M |
| 913 | Coulombel, PatrickFranceMan | 11:33:21h | 5.63 | — | 851st M |
| 914 | de Piogeais, MarcFranceMan | 11:33:46h | 5.62 | — | 852nd M |
| 915 | Luciani, Jean-CharlesFranceMan | 11:33:47h | 5.62 | M45 | 853rd M · 93rd M45 |
| 916 | Leboyer, HerveFranceMan | 11:34:03h | 5.62 | M40 | 854th M · 138th M40 |
| 917 | Domenge, ArmandFranceMan | 11:34:07h | 5.62 | — | 855th M |
| 918 | Borre, SergeFranceMan | 11:34:26h | 5.62 | — | 856th M |
| 919 | Gruet, DanyFranceMan | 11:34:35h | 5.62 | — | 857th M |
| 920 | Prevost, MartineFranceWoman | 11:34:35h | 5.62 | W50 | 63rd F · 2nd W50 |
| 921 | Gonthier, Marie-AnnickFranceWoman | 11:35:07h | 5.61 | W50 | 64th F · 3rd W50 |
| 922 | Kaluzny, FredericFranceMan | 11:35:23h | 5.61 | M35 | 858th M · 132nd M35 |
| 923 | Rougier, NicolasFranceMan | 11:36:06h | 5.60 | M23 | 859th M · 140th M23 |
| 924 | Gryczynski, IsabelleFranceWoman | 11:36:12h | 5.60 | W35 | 65th F · 5th W35 |
| 925 | Sebire, AlainFranceMan | 11:38:12h | 5.59 | — | 860th M |
| 926 | Auterives, FlorenceFranceWoman | 11:38:13h | 5.59 | W23 | 66th F · 13th W23 |
| 927 | Couasnon, JoelFranceMan | 11:38:35h | 5.58 | M40 | 861st M · 139th M40 |
| 928 | Willing, Jean-MarcFranceMan | 11:41:52h | 5.56 | M40 | 862nd M · 140th M40 |
| 929 | Dantin, A-MarieFranceWoman | 11:41:55h | 5.56 | — | 67th F |
| 930 | Gros, FredericFranceMan | 11:42:00h | 5.56 | — | 863rd M |
| 931 | Bustin, XavierFranceMan | 11:42:00h | 5.56 | M23 | 863rd M · 141st M23 |
| 932 | Petitjean, ChristianFranceMan | 11:42:19h | 5.55 | — | 865th M |
| 933 | Ricau, ChristianFranceMan | 11:42:48h | 5.55 | — | 866th M |
| 934 | Petit, Jean-FrancoisFranceMan | 11:42:49h | 5.55 | M35 | 867th M · 133rd M35 |
| 935 | Dutel, Jean-PaulFranceMan | 11:42:56h | 5.55 | — | 868th M |
| 936 | Puerta, LaurenceFranceWoman | 11:42:57h | 5.55 | W55 | 68th F · 3rd W55 |
| 937 | Beal, JeanFranceMan | 11:43:24h | 5.54 | — | 869th M |
| 938 | Gaveau, YvesFranceMan | 11:43:50h | 5.54 | — | 870th M |
| 939 | Michel, Jean-YvesFranceMan | 11:46:03h | 5.52 | MU23 | 871st M · 11th MU23 |
| 940 | Laquerriere, DenisFranceMan | 11:46:03h | 5.52 | M23 | 871st M · 142nd M23 |
| 941 | Billault, VincentFranceMan | 11:46:38h | 5.52 | M35 | 873rd M · 134th M35 |
| 942 | Wetzel, StefanFranceMan | 11:47:06h | 5.51 | — | 874th M |
| 943 | Grangeorges, MarylineFranceWoman | 11:52:10h | 5.48 | W40 | 69th F · 11th W40 |
| 944 | Coslin, ChristianFranceMan | 11:52:15h | 5.48 | M45 | 875th M · 94th M45 |
| 945 | Favre, Jean-NoelFranceMan | 11:52:15h | 5.48 | — | 875th M |
| 946 | Francoise, ChristianFranceMan | 11:52:16h | 5.47 | M45 | 877th M · 95th M45 |
| 947 | Wink Lehner, GottefriedFranceMan | 11:52:27h | 5.47 | — | 878th M |
| 948 | Berthomieu, Jean-PierreFranceMan | 11:54:30h | 5.46 | M45 | 879th M · 96th M45 |
| 949 | Bistour, DavidFranceMan | 11:54:37h | 5.46 | — | 880th M |
| 950 | Poma, PierreFranceMan | 11:54:59h | 5.46 | M55 | 881st M · 6th M55 |
- 901Riccardi, SergeFranceMan840th M · 130th M35Time11:26:50hPace5.68Cat.M35
- 902Dutreuilh, PatriceFranceMan841st M · 137th M40Time11:27:06hPace5.68Cat.M40
- 903Le Miere, AugustinFranceMan842nd M · 40th M50Time11:27:36hPace5.67Cat.M50
- 904Vendewoorre, AlainFranceMan843rd M · 131st M35Time11:28:19hPace5.67Cat.M35
- 905Becquart, ChristopheFranceMan844th MTime11:28:26hPace5.67
- 906Mary, Jean-LucFranceMan845th MTime11:28:35hPace5.66
- 907Amiel, Jean-PaulFranceMan846th M · 41st M50Time11:29:17hPace5.66Cat.M50
- 908Bec, ChristineFranceWoman62nd FTime11:29:29hPace5.66
- 909Bec, Jean-LouisFranceMan847th MTime11:31:00hPace5.64
- 910Loubes, Jean-MarieFranceMan848th M · 92nd M45Time11:31:01hPace5.64Cat.M45
- 911Tetu, GuyFranceMan849th MTime11:31:47hPace5.64
- 912Deilhou, PhilippeFranceMan850th MTime11:32:17hPace5.63
- 913Coulombel, PatrickFranceMan851st MTime11:33:21hPace5.63
- 914de Piogeais, MarcFranceMan852nd MTime11:33:46hPace5.62
- 915Luciani, Jean-CharlesFranceMan853rd M · 93rd M45Time11:33:47hPace5.62Cat.M45
- 916Leboyer, HerveFranceMan854th M · 138th M40Time11:34:03hPace5.62Cat.M40
- 917Domenge, ArmandFranceMan855th MTime11:34:07hPace5.62
- 918Borre, SergeFranceMan856th MTime11:34:26hPace5.62
- 919Gruet, DanyFranceMan857th MTime11:34:35hPace5.62
- 920Prevost, MartineFranceWoman63rd F · 2nd W50Time11:34:35hPace5.62Cat.W50
- 921Gonthier, Marie-AnnickFranceWoman64th F · 3rd W50Time11:35:07hPace5.61Cat.W50
- 922Kaluzny, FredericFranceMan858th M · 132nd M35Time11:35:23hPace5.61Cat.M35
- 923Rougier, NicolasFranceMan859th M · 140th M23Time11:36:06hPace5.60Cat.M23
- 924Gryczynski, IsabelleFranceWoman65th F · 5th W35Time11:36:12hPace5.60Cat.W35
- 925Sebire, AlainFranceMan860th MTime11:38:12hPace5.59
- 926Auterives, FlorenceFranceWoman66th F · 13th W23Time11:38:13hPace5.59Cat.W23
- 927Couasnon, JoelFranceMan861st M · 139th M40Time11:38:35hPace5.58Cat.M40
- 928Willing, Jean-MarcFranceMan862nd M · 140th M40Time11:41:52hPace5.56Cat.M40
- 929Dantin, A-MarieFranceWoman67th FTime11:41:55hPace5.56
- 930Gros, FredericFranceMan863rd MTime11:42:00hPace5.56
- 931Bustin, XavierFranceMan863rd M · 141st M23Time11:42:00hPace5.56Cat.M23
- 932Petitjean, ChristianFranceMan865th MTime11:42:19hPace5.55
- 933Ricau, ChristianFranceMan866th MTime11:42:48hPace5.55
- 934Petit, Jean-FrancoisFranceMan867th M · 133rd M35Time11:42:49hPace5.55Cat.M35
- 935Dutel, Jean-PaulFranceMan868th MTime11:42:56hPace5.55
- 936Puerta, LaurenceFranceWoman68th F · 3rd W55Time11:42:57hPace5.55Cat.W55
- 937Beal, JeanFranceMan869th MTime11:43:24hPace5.54
- 938Gaveau, YvesFranceMan870th MTime11:43:50hPace5.54
- 939Michel, Jean-YvesFranceMan871st M · 11th MU23Time11:46:03hPace5.52Cat.MU23
- 940Laquerriere, DenisFranceMan871st M · 142nd M23Time11:46:03hPace5.52Cat.M23
- 941Billault, VincentFranceMan873rd M · 134th M35Time11:46:38hPace5.52Cat.M35
- 942Wetzel, StefanFranceMan874th MTime11:47:06hPace5.51
- 943Grangeorges, MarylineFranceWoman69th F · 11th W40Time11:52:10hPace5.48Cat.W40
- 944Coslin, ChristianFranceMan875th M · 94th M45Time11:52:15hPace5.48Cat.M45
- 945Favre, Jean-NoelFranceMan875th MTime11:52:15hPace5.48
- 946Francoise, ChristianFranceMan877th M · 95th M45Time11:52:16hPace5.47Cat.M45
- 947Wink Lehner, GottefriedFranceMan878th MTime11:52:27hPace5.47
- 948Berthomieu, Jean-PierreFranceMan879th M · 96th M45Time11:54:30hPace5.46Cat.M45
- 949Bistour, DavidFranceMan880th MTime11:54:37hPace5.46
- 950Poma, PierreFranceMan881st M · 6th M55Time11:54:59hPace5.46Cat.M55
Showing ranks 901–950 of 979